createdAt,value
2019-06-25T00:01:01.662Z,22.55
2019-06-25T00:03:30.088Z,22.59
2019-06-25T00:05:58.521Z,22.71
2019-06-25T00:08:27.082Z,22.63
2019-06-25T00:10:55.509Z,22.61
2019-06-25T00:13:23.943Z,22.57
2019-06-25T00:15:52.531Z,22.31
2019-06-25T00:18:20.959Z,21.97
2019-06-25T00:20:49.459Z,22.05
2019-06-25T00:23:18.276Z,22.68
2019-06-25T00:25:46.715Z,22.25
2019-06-25T00:28:15.126Z,22.50
2019-06-25T00:30:43.850Z,22.08
2019-06-25T00:33:12.276Z,22.16
2019-06-25T00:35:40.707Z,22.02
2019-06-25T00:38:09.233Z,22.11
2019-06-25T00:40:37.661Z,22.00
2019-06-25T00:43:06.121Z,22.28
2019-06-25T00:45:34.590Z,21.96
2019-06-25T00:48:03.009Z,21.57
2019-06-25T00:50:31.454Z,21.58
2019-06-25T00:53:00.188Z,21.57
2019-06-25T00:55:28.618Z,21.37
2019-06-25T00:57:57.047Z,21.66
2019-06-25T01:00:25.675Z,21.52
2019-06-25T01:03:11.981Z,21.47
2019-06-25T01:05:40.689Z,21.23
2019-06-25T01:08:09.199Z,21.06
2019-06-25T01:10:37.633Z,21.09
2019-06-25T01:13:06.235Z,21.04
2019-06-25T01:15:34.730Z,20.91
2019-06-25T01:18:03.175Z,20.82
2019-06-25T01:20:32.294Z,20.88
2019-06-25T01:23:00.740Z,20.91
2019-06-25T01:25:29.179Z,20.89
2019-06-25T01:27:57.720Z,20.86
2019-06-25T01:30:29.674Z,20.79
2019-06-25T01:32:56.482Z,21.17
2019-06-25T01:35:25.196Z,20.93
2019-06-25T01:37:53.627Z,20.62
2019-06-25T01:40:22.724Z,20.74
2019-06-25T01:42:51.181Z,20.45
2019-06-25T01:45:19.870Z,20.66
2019-06-25T01:47:48.283Z,20.82
2019-06-25T01:50:17.249Z,20.58
2019-06-25T01:52:45.678Z,20.43
2019-06-25T01:55:14.949Z,20.34
2019-06-25T01:57:43.413Z,20.23
2019-06-25T02:00:12.583Z,20.65
2019-06-25T02:02:41.153Z,20.47
2019-06-25T02:05:09.988Z,20.26
2019-06-25T02:07:38.411Z,20.19
2019-06-25T02:10:08.989Z,20.23
2019-06-25T02:12:37.506Z,20.11
2019-06-25T02:15:10.237Z,20.12
2019-06-25T02:17:38.814Z,19.90
2019-06-25T02:20:09.062Z,19.85
2019-06-25T02:22:37.721Z,19.86
2019-06-25T02:25:07.601Z,19.85
2019-06-25T02:27:36.064Z,19.86
2019-06-25T02:30:06.902Z,20.10
2019-06-25T02:32:35.334Z,19.89
2019-06-25T02:35:05.066Z,20.02
2019-06-25T02:37:33.517Z,19.64
2019-06-25T02:40:02.061Z,19.71
2019-06-25T02:42:33.391Z,19.90
2019-06-25T02:45:00.796Z,19.60
2019-06-25T02:47:29.236Z,19.53
2019-06-25T02:49:57.817Z,19.58
2019-06-25T02:52:26.294Z,19.68
2019-06-25T02:54:54.730Z,19.60
2019-06-25T02:57:23.259Z,19.50
2019-06-25T02:59:51.762Z,19.44
2019-06-25T03:02:20.193Z,19.32
2019-06-25T03:04:48.737Z,19.53
2019-06-25T03:07:17.254Z,19.56
2019-06-25T03:09:45.750Z,19.62
2019-06-25T03:12:14.343Z,19.45
2019-06-25T03:14:42.774Z,19.51
2019-06-25T03:17:11.232Z,19.24
2019-06-25T03:19:39.795Z,19.12
2019-06-25T03:22:08.295Z,19.35
2019-06-25T03:24:36.727Z,19.23
2019-06-25T03:27:05.501Z,19.27
2019-06-25T03:29:34.174Z,19.41
2019-06-25T03:32:09.225Z,19.31
2019-06-25T03:34:33.035Z,19.32
2019-06-25T03:37:01.466Z,19.46
2019-06-25T03:39:29.969Z,19.36
2019-06-25T03:41:58.501Z,19.32
2019-06-25T03:44:26.933Z,19.36
2019-06-25T03:46:55.430Z,19.12
2019-06-25T03:49:24.020Z,19.12
2019-06-25T03:51:52.493Z,19.26
2019-06-25T03:54:20.933Z,19.23
2019-06-25T03:56:49.498Z,19.24
2019-06-25T03:59:17.912Z,19.17
2019-06-25T04:01:46.410Z,19.31
2019-06-25T04:04:15.005Z,19.37
2019-06-25T04:06:43.500Z,19.28
2019-06-25T04:09:11.930Z,18.89
2019-06-25T04:11:40.388Z,19.27
2019-06-25T04:14:08.826Z,19.29
2019-06-25T04:16:37.345Z,19.20
2019-06-25T04:19:06.100Z,19.31
2019-06-25T04:21:34.588Z,19.42
2019-06-25T04:24:02.987Z,19.49
2019-06-25T04:26:31.586Z,19.48
2019-06-25T04:29:00.090Z,19.35
2019-06-25T04:31:28.519Z,19.69
2019-06-25T04:33:56.986Z,20.22
2019-06-25T04:36:25.415Z,20.84
2019-06-25T04:38:53.852Z,21.43
2019-06-25T04:41:22.317Z,21.90
2019-06-25T04:43:50.770Z,22.09
2019-06-25T04:46:19.268Z,22.70
2019-06-25T04:48:47.734Z,22.89
2019-06-25T04:51:16.168Z,23.06
2019-06-25T04:53:44.665Z,23.10
2019-06-25T04:56:13.132Z,23.51
2019-06-25T04:58:41.558Z,23.89
2019-06-25T05:01:10.063Z,23.96
2019-06-25T05:03:38.542Z,24.02
2019-06-25T05:06:07.051Z,24.30
2019-06-25T05:08:35.506Z,24.35
2019-06-25T05:11:04.226Z,25.00
2019-06-25T05:13:32.726Z,24.88
2019-06-25T05:16:01.999Z,25.17
2019-06-25T05:18:30.990Z,25.10
2019-06-25T05:20:59.509Z,24.83
2019-06-25T05:23:28.492Z,24.78
2019-06-25T05:25:58.129Z,24.97
2019-06-25T05:28:26.578Z,25.41
2019-06-25T05:30:55.426Z,25.45
2019-06-25T05:33:23.898Z,25.41
2019-06-25T05:36:00.022Z,25.69
2019-06-25T05:38:28.520Z,25.26
2019-06-25T05:40:57.100Z,25.75
2019-06-25T05:43:25.520Z,25.61
2019-06-25T05:45:53.982Z,25.71
2019-06-25T05:48:22.576Z,25.87
2019-06-25T05:50:51.346Z,26.19
2019-06-25T05:53:19.817Z,26.50
2019-06-25T05:55:48.354Z,26.52
2019-06-25T05:58:16.785Z,26.79
2019-06-25T06:00:45.444Z,26.35
2019-06-25T06:03:20.071Z,26.43
2019-06-25T06:05:44.223Z,26.53
2019-06-25T06:08:12.673Z,27.37
2019-06-25T06:10:41.133Z,27.06
2019-06-25T06:13:09.651Z,27.13
2019-06-25T06:15:38.298Z,27.43
2019-06-25T06:18:09.789Z,27.90
2019-06-25T06:20:38.320Z,27.47
2019-06-25T06:23:06.751Z,27.09
2019-06-25T06:25:35.186Z,27.66
2019-06-25T06:28:03.617Z,27.70
2019-06-25T06:30:32.213Z,27.44
2019-06-25T06:33:02.222Z,27.65
2019-06-25T06:35:30.730Z,27.74
2019-06-25T06:37:59.253Z,28.03
2019-06-25T06:40:27.956Z,28.30
2019-06-25T06:42:56.395Z,28.34
2019-06-25T06:45:24.863Z,28.21
2019-06-25T06:47:53.429Z,28.40
2019-06-25T06:50:22.010Z,28.49
2019-06-25T06:52:51.417Z,28.24
2019-06-25T06:55:19.872Z,28.41
2019-06-25T06:57:48.389Z,28.95
2019-06-25T07:00:17.765Z,28.77
2019-06-25T07:02:46.253Z,29.25
2019-06-25T07:05:15.026Z,28.83
2019-06-25T07:07:43.617Z,29.02
2019-06-25T07:10:13.191Z,28.69
2019-06-25T07:12:41.708Z,29.09
2019-06-25T07:15:10.756Z,29.49
2019-06-25T07:17:39.523Z,28.89
2019-06-25T07:20:08.924Z,29.19
2019-06-25T07:22:37.631Z,29.16
2019-06-25T07:25:07.702Z,29.18
2019-06-25T07:27:38.388Z,29.55
2019-06-25T07:30:07.326Z,29.45
2019-06-25T07:32:38.250Z,28.85
2019-06-25T07:35:06.943Z,29.43
2019-06-25T07:37:36.369Z,29.19
2019-06-25T07:40:06.342Z,29.09
2019-06-25T07:42:34.844Z,28.67
2019-06-25T07:45:03.958Z,28.84
2019-06-25T07:47:32.564Z,29.41
2019-06-25T07:50:01.222Z,29.03
2019-06-25T07:52:30.043Z,28.80
2019-06-25T07:54:58.545Z,29.51
2019-06-25T07:57:26.969Z,29.67
2019-06-25T07:59:55.594Z,29.39
2019-06-25T08:02:24.167Z,29.87
2019-06-25T08:04:52.617Z,30.03
2019-06-25T08:07:21.070Z,29.76
2019-06-25T08:09:49.743Z,29.93
2019-06-25T08:12:18.276Z,29.48
2019-06-25T08:14:46.743Z,29.72
2019-06-25T08:17:15.197Z,30.59
2019-06-25T08:19:43.631Z,30.20
2019-06-25T08:22:12.188Z,29.68
2019-06-25T08:24:40.685Z,29.25
2019-06-25T08:27:09.189Z,30.08
2019-06-25T08:29:37.652Z,29.94
2019-06-25T08:32:06.113Z,30.30
2019-06-25T08:34:41.817Z,30.03
2019-06-25T08:37:04.861Z,30.68
2019-06-25T08:39:33.439Z,30.57
2019-06-25T08:42:01.958Z,30.58
2019-06-25T08:44:30.415Z,30.84
2019-06-25T08:46:58.930Z,29.83
2019-06-25T08:49:27.375Z,29.98
2019-06-25T08:51:56.058Z,30.64
2019-06-25T08:54:24.771Z,30.84
2019-06-25T08:56:53.265Z,30.37
2019-06-25T08:59:21.737Z,30.88
2019-06-25T09:01:50.299Z,31.01
2019-06-25T09:04:18.910Z,30.76
2019-06-25T09:06:47.677Z,31.09
2019-06-25T09:09:16.102Z,31.21
2019-06-25T09:11:44.595Z,31.29
2019-06-25T09:14:13.207Z,30.96
2019-06-25T09:16:41.744Z,30.13
2019-06-25T09:19:10.246Z,29.84
2019-06-25T09:21:38.707Z,30.44
2019-06-25T09:24:07.275Z,30.37
2019-06-25T09:26:35.713Z,30.68
2019-06-25T09:29:04.685Z,30.68
2019-06-25T09:31:33.186Z,30.79
2019-06-25T09:34:01.615Z,31.49
2019-06-25T09:36:30.131Z,31.36
2019-06-25T09:38:58.723Z,31.25
2019-06-25T09:41:28.155Z,31.53
2019-06-25T09:44:00.108Z,31.15
2019-06-25T09:46:26.642Z,31.49
2019-06-25T09:48:55.332Z,31.58
2019-06-25T09:51:24.478Z,32.04
2019-06-25T09:53:52.954Z,32.26
2019-06-25T09:56:21.450Z,31.90
2019-06-25T09:58:49.932Z,32.18
2019-06-25T10:01:26.245Z,31.59
2019-06-25T10:03:48.617Z,31.74
2019-06-25T10:06:17.239Z,31.67
2019-06-25T10:08:45.670Z,31.66
2019-06-25T10:11:14.096Z,31.42
2019-06-25T10:13:42.578Z,31.20
2019-06-25T10:16:11.009Z,31.47
2019-06-25T10:18:44.448Z,31.62
2019-06-25T10:21:09.753Z,31.81
2019-06-25T10:23:38.222Z,31.28
2019-06-25T10:26:06.710Z,31.71
2019-06-25T10:28:39.126Z,31.50
2019-06-25T10:31:05.629Z,31.67
2019-06-25T10:33:34.082Z,31.93
2019-06-25T10:36:02.617Z,32.12
2019-06-25T10:38:31.076Z,32.25
2019-06-25T10:40:59.513Z,32.81
2019-06-25T10:43:27.967Z,32.81
2019-06-25T10:45:56.465Z,32.71
2019-06-25T10:49:09.416Z,32.52
2019-06-25T10:51:38.047Z,32.67
2019-06-25T10:54:06.630Z,32.95
2019-06-25T10:56:35.375Z,33.13
2019-06-25T10:59:03.986Z,33.18
2019-06-25T11:01:32.410Z,33.64
2019-06-25T11:04:01.157Z,32.58
2019-06-25T11:06:29.590Z,32.90
2019-06-25T11:08:58.022Z,32.80
2019-06-25T11:11:26.559Z,32.74
2019-06-25T11:14:07.633Z,32.76
2019-06-25T11:16:25.145Z,32.92
2019-06-25T11:18:53.783Z,33.28
2019-06-25T11:21:22.363Z,32.88
2019-06-25T11:23:50.821Z,33.46
2019-06-25T11:26:23.115Z,33.73
2019-06-25T11:28:49.676Z,34.02
2019-06-25T11:31:18.179Z,34.22
2019-06-25T11:33:46.772Z,33.79
2019-06-25T11:36:21.292Z,33.80
2019-06-25T11:38:45.441Z,33.33
2019-06-25T11:41:14.835Z,33.81
2019-06-25T11:43:44.788Z,33.34
2019-06-25T11:46:13.490Z,32.82
2019-06-25T11:48:42.230Z,32.97
2019-06-25T11:51:10.833Z,33.60
2019-06-25T11:53:39.323Z,33.61
2019-06-25T11:56:07.946Z,33.29
2019-06-25T11:58:36.437Z,33.22
2019-06-25T12:01:05.387Z,33.47
2019-06-25T12:03:34.046Z,33.73
2019-06-25T12:06:02.494Z,33.72
2019-06-25T12:08:30.927Z,33.66
2019-06-25T12:10:59.395Z,34.08
2019-06-25T12:13:27.828Z,34.35
2019-06-25T12:15:56.270Z,34.20
2019-06-25T12:18:24.998Z,34.22
2019-06-25T12:20:53.514Z,34.28
2019-06-25T12:23:21.954Z,34.04
2019-06-25T12:25:50.480Z,34.08
2019-06-25T12:28:18.922Z,34.35
2019-06-25T12:30:47.347Z,34.83
2019-06-25T12:33:16.120Z,34.78
2019-06-25T12:35:44.621Z,34.93
2019-06-25T12:38:13.064Z,35.24
2019-06-25T12:40:41.549Z,34.24
2019-06-25T12:43:10.143Z,34.89
2019-06-25T12:45:38.576Z,34.56
2019-06-25T12:48:07.218Z,34.55
2019-06-25T12:50:35.631Z,34.92
2019-06-25T12:53:04.246Z,34.70
2019-06-25T12:55:32.693Z,34.90
2019-06-25T12:58:01.134Z,35.31
2019-06-25T13:00:30.075Z,35.34
2019-06-25T13:02:58.563Z,35.06
2019-06-25T13:05:27.013Z,34.97
2019-06-25T13:07:55.470Z,35.68
2019-06-25T13:10:24.718Z,35.56
2019-06-25T13:12:53.260Z,35.05
2019-06-25T13:15:22.175Z,35.43
2019-06-25T13:17:50.752Z,35.69
2019-06-25T13:20:19.800Z,35.54
2019-06-25T13:22:48.253Z,35.33
2019-06-25T13:25:16.766Z,35.11
2019-06-25T13:27:45.221Z,35.46
2019-06-25T13:30:14.084Z,35.55
2019-06-25T13:32:42.680Z,35.63
2019-06-25T13:35:11.754Z,35.93
2019-06-25T13:37:43.100Z,36.01
2019-06-25T13:40:11.984Z,36.04
2019-06-25T13:42:40.444Z,36.30
2019-06-25T13:45:09.828Z,35.68
2019-06-25T13:47:38.685Z,35.85
2019-06-25T13:50:07.801Z,36.05
2019-06-25T13:52:36.299Z,36.03
2019-06-25T13:55:09.936Z,35.88
2019-06-25T13:57:48.491Z,35.59
2019-06-25T14:00:14.631Z,35.86
2019-06-25T14:02:43.121Z,35.62
2019-06-25T14:05:13.602Z,35.27
2019-06-25T14:07:57.458Z,35.62
2019-06-25T14:10:14.681Z,35.73
2019-06-25T14:12:43.262Z,35.38
2019-06-25T14:15:14.667Z,35.39
2019-06-25T14:17:43.273Z,35.21
2019-06-25T14:20:12.453Z,35.08
2019-06-25T14:22:40.908Z,35.08
2019-06-25T14:25:10.439Z,35.48
2019-06-25T14:27:38.977Z,35.75
2019-06-25T14:30:11.205Z,35.20
2019-06-25T14:32:39.783Z,35.52
2019-06-25T14:35:08.658Z,35.67
2019-06-25T14:37:37.231Z,35.22
2019-06-25T14:40:09.794Z,35.56
2019-06-25T14:42:38.225Z,35.80
2019-06-25T14:45:11.272Z,36.08
2019-06-25T14:47:39.806Z,36.20
2019-06-25T14:50:09.286Z,36.16
2019-06-25T14:52:37.888Z,36.15
2019-06-25T14:55:08.160Z,35.99
2019-06-25T14:57:36.791Z,35.97
2019-06-25T15:00:09.260Z,36.33
2019-06-25T15:02:37.817Z,36.24
2019-06-25T15:05:06.886Z,36.20
2019-06-25T15:07:35.390Z,36.15
2019-06-25T15:10:07.663Z,36.20
2019-06-25T15:12:36.542Z,36.24
2019-06-25T15:15:07.770Z,36.27
2019-06-25T15:17:36.564Z,36.14
2019-06-25T15:20:06.225Z,36.41
2019-06-25T15:22:34.801Z,36.48
2019-06-25T15:25:03.521Z,36.59
2019-06-25T15:27:32.039Z,36.25
2019-06-25T15:30:02.693Z,36.13
2019-06-25T15:32:30.763Z,35.83
2019-06-25T15:34:59.143Z,36.00
2019-06-25T15:37:27.581Z,36.04
2019-06-25T15:39:56.034Z,36.05
2019-06-25T15:42:24.544Z,36.02
2019-06-25T15:44:53.008Z,35.96
2019-06-25T15:47:21.509Z,36.02
2019-06-25T15:49:49.953Z,36.00
2019-06-25T15:52:18.388Z,36.06
2019-06-25T15:54:47.026Z,36.34
2019-06-25T15:57:15.501Z,36.27
2019-06-25T15:59:44.022Z,36.23
2019-06-25T16:02:12.671Z,35.96
2019-06-25T16:04:41.103Z,36.02
2019-06-25T16:07:09.607Z,36.16
2019-06-25T16:09:38.104Z,36.08
2019-06-25T16:12:06.583Z,36.01
2019-06-25T16:14:35.017Z,36.17
2019-06-25T16:17:06.914Z,36.05
2019-06-25T16:19:35.571Z,36.11
2019-06-25T16:22:04.321Z,36.30
2019-06-25T16:24:32.923Z,36.07
2019-06-25T16:27:01.350Z,35.80
2019-06-25T16:29:29.786Z,35.84
2019-06-25T16:31:58.253Z,35.75
2019-06-25T16:34:26.692Z,35.66
2019-06-25T16:36:55.131Z,35.76
2019-06-25T16:39:23.585Z,35.75
2019-06-25T16:41:52.021Z,36.08
2019-06-25T16:44:20.470Z,35.82
2019-06-25T16:46:48.995Z,35.65
2019-06-25T16:49:17.717Z,35.67
2019-06-25T16:51:46.161Z,35.56
2019-06-25T16:54:14.636Z,35.44
2019-06-25T16:56:43.126Z,35.44
2019-06-25T16:59:11.605Z,35.31
2019-06-25T17:01:40.219Z,35.18
2019-06-25T17:04:08.647Z,35.01
2019-06-25T17:06:37.153Z,34.95
2019-06-25T17:09:09.654Z,34.82
2019-06-25T17:11:38.128Z,34.74
2019-06-25T17:14:06.624Z,34.90
2019-06-25T17:16:35.082Z,34.74
2019-06-25T17:19:03.528Z,34.61
2019-06-25T17:21:31.958Z,34.53
2019-06-25T17:24:02.797Z,34.34
2019-06-25T17:26:30.643Z,34.45
2019-06-25T17:28:59.144Z,34.49
2019-06-25T17:31:27.602Z,34.36
2019-06-25T17:33:56.040Z,34.36
2019-06-25T17:36:26.804Z,34.34
2019-06-25T17:38:55.440Z,34.17
2019-06-25T17:41:23.877Z,34.22
2019-06-25T17:43:52.318Z,34.23
2019-06-25T17:46:20.978Z,34.14
2019-06-25T17:48:49.422Z,34.08
2019-06-25T17:51:18.155Z,34.14
2019-06-25T17:53:46.644Z,34.12
2019-06-25T17:56:15.074Z,34.04
2019-06-25T17:58:43.504Z,33.94
2019-06-25T18:01:11.974Z,33.74
2019-06-25T18:03:40.424Z,33.84
2019-06-25T18:06:08.934Z,33.84
2019-06-25T18:08:37.397Z,33.78
2019-06-25T18:11:05.859Z,33.68
2019-06-25T18:13:34.316Z,33.64
2019-06-25T18:16:03.167Z,33.49
2019-06-25T18:18:31.616Z,33.40
2019-06-25T18:21:00.053Z,33.36
2019-06-25T18:23:28.716Z,33.35
2019-06-25T18:25:57.217Z,33.19
2019-06-25T18:28:25.726Z,33.31
2019-06-25T18:30:54.366Z,33.31
2019-06-25T18:33:24.364Z,33.25
2019-06-25T18:35:52.794Z,33.24
2019-06-25T18:38:21.541Z,33.17
2019-06-25T18:40:49.928Z,33.08
2019-06-25T18:43:18.374Z,32.76
2019-06-25T18:45:46.929Z,32.50
2019-06-25T18:48:15.335Z,32.03
2019-06-25T18:50:43.783Z,32.04
2019-06-25T18:53:12.354Z,32.03
2019-06-25T18:55:40.776Z,31.98
2019-06-25T18:58:09.281Z,31.89
2019-06-25T19:00:37.899Z,31.54
2019-06-25T19:03:06.329Z,31.36
2019-06-25T19:05:34.770Z,31.35
2019-06-25T19:08:03.522Z,31.34
2019-06-25T19:10:40.351Z,31.39
2019-06-25T19:13:02.286Z,31.37
2019-06-25T19:15:30.829Z,31.03
2019-06-25T19:17:59.261Z,31.13
2019-06-25T19:20:27.855Z,30.99
2019-06-25T19:22:56.711Z,31.05
2019-06-25T19:25:25.168Z,30.76
2019-06-25T19:27:53.679Z,30.74
2019-06-25T19:30:22.211Z,30.61
2019-06-25T19:32:50.793Z,30.66
2019-06-25T19:35:19.389Z,30.40
2019-06-25T19:37:47.937Z,30.21
2019-06-25T19:40:16.843Z,30.03
2019-06-25T19:42:45.448Z,30.02
2019-06-25T19:45:14.596Z,29.75
2019-06-25T19:47:50.166Z,29.45
2019-06-25T19:50:17.321Z,29.43
2019-06-25T19:52:44.075Z,29.54
2019-06-25T19:55:13.753Z,29.42
2019-06-25T19:57:42.284Z,29.39
2019-06-25T20:00:11.494Z,29.30
2019-06-25T20:02:39.908Z,29.22
2019-06-25T20:05:08.610Z,28.99
2019-06-25T20:07:37.112Z,28.88
2019-06-25T20:10:08.611Z,28.44
2019-06-25T20:12:37.054Z,28.26
2019-06-25T20:15:07.742Z,28.43
2019-06-25T20:17:36.274Z,28.11
2019-06-25T20:20:07.922Z,28.26
2019-06-25T20:22:36.560Z,27.91
2019-06-25T20:25:06.723Z,27.56
2019-06-25T20:27:35.183Z,27.03
2019-06-25T20:30:05.394Z,27.23
2019-06-25T20:32:33.830Z,27.49
2019-06-25T20:35:02.855Z,27.58
2019-06-25T20:37:31.602Z,27.48
2019-06-25T20:40:00.117Z,27.10
2019-06-25T20:42:28.634Z,27.12
2019-06-25T20:44:57.335Z,26.88
2019-06-25T20:47:25.790Z,26.74
2019-06-25T20:49:54.227Z,26.63
2019-06-25T20:52:22.770Z,26.46
2019-06-25T20:54:51.242Z,26.73
2019-06-25T20:57:19.870Z,26.88
2019-06-25T20:59:48.457Z,26.96
2019-06-25T21:02:16.888Z,26.80
2019-06-25T21:04:45.335Z,26.96
2019-06-25T21:07:13.876Z,27.15
2019-06-25T21:09:42.407Z,27.06
2019-06-25T21:12:10.826Z,26.62
2019-06-25T21:14:39.323Z,26.55
2019-06-25T21:17:07.824Z,26.36
2019-06-25T21:19:42.778Z,26.42
2019-06-25T21:22:06.601Z,26.51
2019-06-25T21:24:35.040Z,25.96
2019-06-25T21:27:03.472Z,26.07
2019-06-25T21:29:31.959Z,25.83
2019-06-25T21:32:00.395Z,25.59
2019-06-25T21:34:28.847Z,25.46
2019-06-25T21:36:57.280Z,25.70
2019-06-25T21:39:25.716Z,25.79
2019-06-25T21:42:04.074Z,25.64
2019-06-25T21:44:24.518Z,25.77
2019-06-25T21:47:06.300Z,25.43
2019-06-25T21:49:23.202Z,25.54
2019-06-25T21:51:51.766Z,25.68
2019-06-25T21:54:20.336Z,25.59
2019-06-25T21:56:48.837Z,25.37
2019-06-25T21:59:17.654Z,25.63
2019-06-25T22:01:47.830Z,25.30
2019-06-25T22:04:16.277Z,24.85
2019-06-25T22:06:44.730Z,24.76
2019-06-25T22:09:13.335Z,24.91
2019-06-25T22:11:41.766Z,24.59
2019-06-25T22:14:10.414Z,24.94
2019-06-25T22:16:38.963Z,24.85
2019-06-25T22:19:07.463Z,24.74
2019-06-25T22:21:36.022Z,24.74
2019-06-25T22:24:04.589Z,24.34
2019-06-25T22:26:33.022Z,24.70
2019-06-25T22:29:01.481Z,24.70
2019-06-25T22:31:29.912Z,24.73
2019-06-25T22:33:58.404Z,24.54
2019-06-25T22:36:26.994Z,24.49
2019-06-25T22:38:55.418Z,24.50
2019-06-25T22:41:23.920Z,24.39
2019-06-25T22:43:52.381Z,24.29
2019-06-25T22:46:20.810Z,24.06
2019-06-25T22:48:49.326Z,24.47
2019-06-25T22:51:17.774Z,24.18
2019-06-25T22:53:46.204Z,23.94
2019-06-25T22:56:14.635Z,23.90
2019-06-25T22:58:43.095Z,24.08
2019-06-25T23:01:11.603Z,23.98
2019-06-25T23:03:40.031Z,23.91
2019-06-25T23:06:08.600Z,23.64
2019-06-25T23:08:37.097Z,23.57
2019-06-25T23:11:06.480Z,23.71
2019-06-25T23:13:34.924Z,23.69
2019-06-25T23:16:03.358Z,23.27
2019-06-25T23:18:31.784Z,23.30
2019-06-25T23:21:00.256Z,23.25
2019-06-25T23:23:28.715Z,23.19
2019-06-25T23:25:57.199Z,23.41
2019-06-25T23:28:25.659Z,23.27
2019-06-25T23:30:54.084Z,23.15
2019-06-25T23:33:22.521Z,23.23
2019-06-25T23:35:51.118Z,22.47
2019-06-25T23:38:19.609Z,22.96
2019-06-25T23:40:48.052Z,23.01
2019-06-25T23:43:16.702Z,22.97
2019-06-25T23:45:45.116Z,22.96
2019-06-25T23:48:13.624Z,22.79
2019-06-25T23:50:42.105Z,22.96
2019-06-25T23:53:10.536Z,22.91
2019-06-25T23:55:38.962Z,22.86
2019-06-25T23:58:07.489Z,22.99
